Tropical Cyclones
[Index]
Main Index Home Page Stock Weather Photos Extreme Storms Discussion Storm News and Storm Chasing Reports Tropical Cyclones / Hurricanes / Typhoons Weather Data and Links Wild Fires / Bushfires Weather Observation Techniques Weather Picture Catalogue Tornado Pictures and Reports Stock Video Footage and DVDs for sale
Season 2012-2013 Tropical Cyclone HARUNA Track Map
Season 2012-2013 Summaries: [BoM-AU] [JTWC-AU] [JTWC-SIO] [JTWC-SPAC] [JTWC-SH]
<<- Previous TC | JTWC 2012-2013 Season | Next TC ->>

click for intensity scale information  Lat/long Grid: Show Hide

 Date Labels: Show Hide

Joint Typhoon Warning Centre Cyclone Data

Name: HARUNA

14 Feb 2013 12:00 UTC to 28 Feb 2013 00:00 UTC

    date/time    lat    long     hPa   cat  kts
2013-02-14 12   20.1    41.8    1010         15          
2013-02-14 18   20.3    41.6    1007         20          
2013-02-15 00   20.7    41.1    1007         20          
2013-02-15 06   21.0    40.5    1004         25          
2013-02-15 12   20.8    39.8    1004         25          
2013-02-15 18   20.2    39.5    1004         25          
2013-02-16 00   19.8    38.6    1004         25          
2013-02-16 06   18.6    38.1    1004         25          
2013-02-16 12   17.2    37.7    1004         25          
2013-02-16 18   16.6    38.2    1004         25          
2013-02-17 00   16.5    39.0    1007         20          
2013-02-17 06   16.7    39.8    1007         20          
2013-02-17 12   17.4    40.1    1007         20          
2013-02-17 18   18.6    41.0    1004         25          
2013-02-18 00   19.0    40.2    1004         25          
2013-02-18 06   19.3    40.4    1004         25          
2013-02-18 12   19.5    40.8    1000         30          
2013-02-18 18   19.8    41.2    1000         30          
2013-02-19 00   20.2    41.1    1000         30          
2013-02-19 06   20.6    41.1    1000         30          
2013-02-19 12   21.2    41.1     993    1    40          
2013-02-19 15   21.4    41.2     993    1    40          
2013-02-19 18   21.4    41.0     989    1    45          
2013-02-20 00   21.5    40.7     982    2    55          
2013-02-20 00   21.5    40.7     982    2    55          
2013-02-20 06   21.7    40.9     978    2    60          
2013-02-20 06   21.7    40.9     978    2    60          
2013-02-20 12   22.1    40.9     970    2    70          
2013-02-20 12   22.1    40.9     970    2    70          
2013-02-20 12   22.1    40.9     970    2    70          
2013-02-20 18   22.3    41.1     956    3    90          
2013-02-20 18   22.3    41.1     956    3    90          
2013-02-20 18   22.3    41.1     956    3    90          
2013-02-21 00   22.5    41.3     952    3    95          
2013-02-21 00   22.5    41.3     952    3    95          
2013-02-21 00   22.5    41.3     952    3    95          
2013-02-21 06   22.4    41.5     944    4   105          
2013-02-21 06   22.4    41.5     944    4   105          
2013-02-21 06   22.4    41.5     944    4   105          
2013-02-21 12   22.2    41.8     948    4   100          
2013-02-21 12   22.2    41.8     948    4   100          
2013-02-21 12   22.2    41.8     948    4   100          
2013-02-21 18   22.1    42.4     956    3    90          
2013-02-21 18   22.1    42.4     956    3    90          
2013-02-21 18   22.1    42.4     956    3    90          
2013-02-22 00   22.2    43.0     956    3    90          
2013-02-22 00   22.2    43.0     956    3    90          
2013-02-22 00   22.2    43.0     956    3    90          
2013-02-22 06   22.5    43.6     959    3    85          
2013-02-22 06   22.5    43.6     959    3    85          
2013-02-22 06   22.5    43.6     959    3    85          
2013-02-22 12   23.1    44.2     963    3    80          
2013-02-22 12   23.1    44.2     963    3    80          
2013-02-22 12   23.1    44.2     963    3    80          
2013-02-22 18   23.8    45.1     970    2    70          
2013-02-22 18   23.8    45.1     970    2    70          
2013-02-22 18   23.8    45.1     970    2    70          
2013-02-23 00   24.3    46.3     978    2    60          
2013-02-23 00   24.3    46.3     978    2    60          
2013-02-23 06   24.9    47.7     985    1    50          
2013-02-23 12   25.3    48.7     989    1    45          
2013-02-23 18   25.8    49.6     993    1    40          
2013-02-24 00   26.1    50.9     993    1    40          
2013-02-24 06   26.6    52.4     993    1    40          
2013-02-24 12   26.9    54.0     996         35          
2013-02-24 18   27.1    55.7     996         35          
2013-02-25 00   27.0    57.4     996         35          
2013-02-25 06   26.9    58.9    1004         25          
2013-02-25 12   27.2    60.1    1000         30          
2013-02-25 18   27.3    61.4    1000         30          
2013-02-26 00   27.3    62.3    1000         30          
2013-02-26 06   27.2    62.7    1004         25          
2013-02-26 12   27.1    63.1    1004         25          
2013-02-26 18   26.6    62.7    1004         25          
2013-02-27 00   26.1    62.2    1004         25          
2013-02-27 06   25.4    61.4    1004         25          
2013-02-27 12   24.9    60.3    1004         25          
2013-02-27 18   24.5    59.6    1004         25          
2013-02-28 00   24.3    58.3    1007         20          
Winds are 1-min average.

Tropical cyclone tracks developed by Michael Bath using data from the Joint Typhoon Warning Centre Best Tracks and Google Maps.


[Australian Severe Weather index] [Copyright Notice] [Email Contacts] [Search This Site] [Privacy Policy]
Document: tropical_cyclone_haruna.htm Updated: 28 June 2017